Angora, MN

3:14 AM CDT on August 27, 2016 (GMT -0500)
Greenwood Township , Lake Vermilion | | Change Station

Elev 1368 ft 47.86 °N, 92.41 °W | Updated 26 seconds ago

Light Rain
Light Rain
57.6 °F
Feels Like 57.6 °F
N
0.0
Wind Variable Wind from South
Gusts 0.0 mph

Today
High -- | Low -- °F
--% Chance of Precip.
Yesterday
High -- | Low -- °F
Precip. -- in
Pressure 30.09 in
Visibility 10.0 miles
Clouds Scattered Clouds 6500 ft
Scattered Clouds 9500 ft
Dew Point 56 °F
Humidity 94%
Rainfall 0.00 in
Snow Depth Not available.
6:23 AM 8:00 PM
Waning Crescent, 26% visible
METAR KCQM 270755Z AUTO 00000KT 10SM -RA SCT065 SCT095 15/12 A3009 RMK AO2
Pressure 30.09 in
Visibility 10.0 miles
Clouds Scattered Clouds 6500 ft
Scattered Clouds 9500 ft
Dew Point 56 °F
Humidity 94%
Rainfall 0.00 in
Snow Depth Not available.
6:23 AM 8:00 PM
Waning Crescent, 26% visible
METAR KCQM 270755Z AUTO 00000KT 10SM -RA SCT065 SCT095 15/12 A3009 RMK AO2

10-Day Weather Forecast

Almanac

Astronomy

Aug. 27, 2016 Rise Set
Actual Time
Civil Twilight
Nautical Twilight
Astronomical Twilight
Moon
Length of Visible Light
Length of Day
Tomorrow will be .
, % of the Moon is Illuminated

Today's Extremes

State Highs State Lows

Community

WunderPhotos

Upload Photos

1,935,303 photos uploaded!

WunderBlog® & News

Nearby

Air Quality

  Air Quality AQ Index Pollutant
Not available.

Snow Depth

Station Depth Elevation

Earthquake Activity

City Distance Mag. Time & Date
Minimum magnitude displayed is 2.5.

Coastal Water Temperatures

Place Temperature

Stations

Nearby Weather Stations

Station Location Temp. Windchill Dew Point Humidity Wind Precip. Elev Updated Type
                   

Watches & Warnings

There are currently no watches in effect.